RJOB

Okayama Airport

Airport
ICAO code
RJOB
IATA Code
OKJ
Summary
ICAO Region
APAC
ICAO Territory
Location

Okayama, Okayama Prefecture

Serving
Okayama
Elevation
785 ft
Coordinates
34° 45' 36" N , 133° 51' 11" E
KCC
Metar
Observation
RJOB 030800Z 25003KT 190V280 9999 FEW030 07/M02 Q1017
Station
Okayama Airport
Date/Time
2023-02-03 08:00:00
Wind direction
250°
Wind speed
03 kts
Lowest cloud amount
few clouds
Temperature
7°C
Dew point
-2°C
Humidity
52%
QNH
1017 hPa
Weather condition
n/a

Okayama Airport is an airport in Okayama Prefecture, Japan.

Climatology

Humid Sub-tropical climate (Köppen climate classification Cfa)

Runways

Designator Length Width Surface Rops
7/25 3000 46 ASP Yes/Yes

Airport map

Aerial View

SKYbrary Partners:

Safety knowledge contributed by: